createdAt,value
2022-09-17T00:00:11.062Z,1.56
2022-09-17T00:01:14.070Z,1.32
2022-09-17T00:02:11.120Z,1.64
2022-09-17T00:03:11.115Z,1.16
2022-09-17T00:04:11.066Z,1.70
2022-09-17T00:05:11.063Z,1.22
2022-09-17T00:06:11.059Z,1.18
2022-09-17T00:07:11.061Z,1.48
2022-09-17T00:08:13.065Z,1.48
2022-09-17T00:09:11.060Z,1.88
2022-09-17T00:10:11.060Z,1.48
2022-09-17T00:11:17.082Z,2.16
2022-09-17T00:12:11.060Z,1.68
2022-09-17T00:13:11.069Z,1.74
2022-09-17T00:14:15.062Z,1.82
2022-09-17T00:15:11.061Z,1.46
2022-09-17T00:16:11.103Z,1.52
2022-09-17T00:17:11.063Z,2.34
2022-09-17T00:18:11.064Z,2.54
2022-09-17T00:19:14.063Z,1.88
2022-09-17T00:20:12.064Z,1.68
2022-09-17T00:21:17.061Z,1.48
2022-09-17T00:22:11.060Z,2.02
2022-09-17T00:23:11.065Z,1.64
2022-09-17T00:24:12.056Z,1.52
2022-09-17T00:25:11.060Z,1.30
2022-09-17T00:26:11.066Z,1.16
2022-09-17T00:27:11.059Z,1.70
2022-09-17T00:28:11.054Z,1.68
2022-09-17T00:29:11.060Z,1.24
2022-09-17T00:30:11.059Z,2.40
2022-09-17T00:31:11.198Z,1.44
2022-09-17T00:32:11.066Z,1.48
2022-09-17T00:33:16.056Z,1.18
2022-09-17T00:34:11.055Z,1.50
2022-09-17T00:35:11.061Z,1.28
2022-09-17T00:36:11.061Z,1.44
2022-09-17T00:37:11.055Z,1.12
2022-09-17T00:38:11.067Z,1.22
2022-09-17T00:39:11.059Z,1.66
2022-09-17T00:40:11.101Z,1.12
2022-09-17T00:41:11.061Z,1.56
2022-09-17T00:42:16.059Z,1.58
2022-09-17T00:43:12.055Z,2.08
2022-09-17T00:44:19.066Z,1.52
2022-09-17T00:45:11.060Z,1.62
2022-09-17T00:46:21.127Z,1.66
2022-09-17T00:47:19.062Z,1.92
2022-09-17T00:48:13.059Z,2.98
2022-09-17T00:49:16.061Z,2.24
2022-09-17T00:50:17.058Z,2.04
2022-09-17T00:51:11.062Z,1.42
2022-09-17T00:52:13.067Z,1.48
2022-09-17T00:53:13.058Z,1.28
2022-09-17T00:54:11.063Z,1.62
2022-09-17T00:55:19.070Z,1.58
2022-09-17T00:56:19.062Z,1.52
2022-09-17T00:57:11.059Z,1.60
2022-09-17T00:58:11.064Z,1.50
2022-09-17T00:59:11.070Z,1.72
2022-09-17T01:00:11.059Z,1.46
2022-09-17T01:01:11.121Z,1.74
2022-09-17T01:02:11.108Z,2.46
2022-09-17T01:03:11.058Z,1.56
2022-09-17T01:04:17.060Z,1.80
2022-09-17T01:05:11.069Z,2.26
2022-09-17T01:06:19.058Z,3.14
2022-09-17T01:07:19.056Z,2.56
2022-09-17T01:08:19.060Z,2.22
2022-09-17T01:09:21.070Z,2.10
2022-09-17T01:10:19.062Z,1.98
2022-09-17T01:11:21.063Z,2.28
2022-09-17T01:12:19.066Z,2.36
2022-09-17T01:13:21.062Z,2.22
2022-09-17T01:14:21.069Z,2.76
2022-09-17T01:15:19.063Z,2.30
2022-09-17T01:16:21.093Z,2.66
2022-09-17T01:17:21.061Z,2.36
2022-09-17T01:18:19.064Z,1.74
2022-09-17T01:19:19.064Z,3.10
2022-09-17T01:20:21.062Z,1.92
2022-09-17T01:21:19.061Z,2.36
2022-09-17T01:22:19.058Z,2.02
2022-09-17T01:23:19.056Z,2.36
2022-09-17T01:24:19.060Z,1.58
2022-09-17T01:25:19.060Z,1.52
2022-09-17T01:26:19.058Z,1.24
2022-09-17T01:27:21.055Z,1.46
2022-09-17T01:28:21.058Z,1.18
2022-09-17T01:29:21.060Z,1.10
2022-09-17T01:30:19.072Z,2.60
2022-09-17T01:31:19.118Z,3.62
2022-09-17T01:32:19.057Z,1.58
2022-09-17T01:33:19.060Z,1.06
2022-09-17T01:34:19.066Z,1.86
2022-09-17T01:35:17.058Z,1.72
2022-09-17T01:36:21.056Z,1.12
2022-09-17T01:37:17.058Z,1.44
2022-09-17T01:38:15.060Z,1.38
2022-09-17T01:39:21.060Z,1.48
2022-09-17T01:40:20.130Z,1.10
2022-09-17T01:41:19.055Z,1.22
2022-09-17T01:42:21.060Z,1.54
2022-09-17T01:43:17.070Z,1.48
2022-09-17T01:44:19.061Z,1.38
2022-09-17T01:45:17.062Z,2.36
2022-09-17T01:46:17.107Z,0.98
2022-09-17T01:47:21.057Z,1.74
2022-09-17T01:48:19.061Z,1.56
2022-09-17T01:49:11.062Z,1.16
2022-09-17T01:50:17.063Z,1.46
2022-09-17T01:51:11.068Z,0.98
2022-09-17T01:52:13.059Z,1.48
2022-09-17T01:53:12.062Z,1.06
2022-09-17T01:54:21.069Z,1.08
2022-09-17T01:55:13.061Z,1.08
2022-09-17T01:56:13.059Z,1.18
2022-09-17T01:57:17.064Z,0.98
2022-09-17T01:58:14.068Z,1.40
2022-09-17T01:59:17.065Z,1.26
2022-09-17T02:00:11.056Z,1.36
2022-09-17T02:01:12.159Z,1.24
2022-09-17T02:02:21.086Z,0.88
2022-09-17T02:03:16.060Z,1.46
2022-09-17T02:04:17.062Z,0.94
2022-09-17T02:05:23.062Z,0.74
2022-09-17T02:06:17.067Z,0.88
2022-09-17T02:07:17.059Z,0.78
2022-09-17T02:08:12.060Z,1.66
2022-09-17T02:09:19.063Z,1.16
2022-09-17T02:10:13.089Z,1.60
2022-09-17T02:11:14.064Z,1.24
2022-09-17T02:12:15.071Z,0.84
2022-09-17T02:13:16.061Z,1.14
2022-09-17T02:14:17.060Z,1.42
2022-09-17T02:15:14.061Z,1.02
2022-09-17T02:16:19.096Z,1.08
2022-09-17T02:17:20.061Z,1.28
2022-09-17T02:18:19.058Z,1.30
2022-09-17T02:19:19.061Z,1.28
2022-09-17T02:20:11.069Z,1.08
2022-09-17T02:21:19.055Z,0.90
2022-09-17T02:22:19.055Z,1.24
2022-09-17T02:23:16.058Z,1.36
2022-09-17T02:24:17.059Z,1.48
2022-09-17T02:25:19.056Z,1.12
2022-09-17T02:26:16.054Z,1.26
2022-09-17T02:27:23.060Z,1.16
2022-09-17T02:28:19.071Z,1.10
2022-09-17T02:29:18.060Z,1.10
2022-09-17T02:30:11.057Z,1.54
2022-09-17T02:31:11.212Z,1.26
2022-09-17T02:32:11.059Z,1.50
2022-09-17T02:33:12.056Z,0.92
2022-09-17T02:34:11.060Z,0.86
2022-09-17T02:35:11.066Z,0.70
2022-09-17T02:36:11.060Z,1.00
2022-09-17T02:37:11.054Z,1.46
2022-09-17T02:38:11.065Z,0.62
2022-09-17T02:39:11.060Z,1.02
2022-09-17T02:40:12.128Z,1.02
2022-09-17T02:41:18.066Z,1.74
2022-09-17T02:42:19.061Z,1.36
2022-09-17T02:43:19.057Z,0.96
2022-09-17T02:44:19.056Z,0.98
2022-09-17T02:45:19.059Z,1.72
2022-09-17T02:46:19.144Z,0.98
2022-09-17T02:47:19.060Z,1.56
2022-09-17T02:48:21.059Z,0.68
2022-09-17T02:49:19.062Z,0.92
2022-09-17T02:50:21.062Z,1.04
2022-09-17T02:51:19.072Z,1.36
2022-09-17T02:52:19.062Z,1.38
2022-09-17T02:53:19.058Z,1.32
2022-09-17T02:54:21.060Z,1.30
2022-09-17T02:55:21.063Z,1.78
2022-09-17T02:56:18.077Z,0.76
2022-09-17T02:57:21.062Z,1.28
2022-09-17T02:58:21.058Z,1.24
2022-09-17T02:59:21.056Z,0.88
2022-09-17T03:00:15.061Z,0.94
2022-09-17T03:01:21.088Z,0.96
2022-09-17T03:02:19.138Z,1.28
2022-09-17T03:03:16.061Z,1.32
2022-09-17T03:04:13.061Z,1.00
2022-09-17T03:05:11.067Z,0.98
2022-09-17T03:06:11.059Z,0.50
2022-09-17T03:07:11.061Z,0.96
2022-09-17T03:08:13.063Z,1.26
2022-09-17T03:09:11.060Z,0.86
2022-09-17T03:10:11.062Z,0.94
2022-09-17T03:11:12.069Z,0.82
2022-09-17T03:12:11.060Z,0.90
2022-09-17T03:13:11.063Z,0.90
2022-09-17T03:14:11.069Z,0.92
2022-09-17T03:15:11.060Z,1.48
2022-09-17T03:16:11.154Z,1.40
2022-09-17T03:17:11.071Z,0.78
2022-09-17T03:18:11.071Z,1.02
2022-09-17T03:19:11.062Z,0.84
2022-09-17T03:20:11.071Z,0.50
2022-09-17T03:21:11.057Z,0.64
2022-09-17T03:22:11.060Z,0.66
2022-09-17T03:23:11.067Z,0.58
2022-09-17T03:24:11.055Z,1.08
2022-09-17T03:25:11.060Z,1.54
2022-09-17T03:26:11.066Z,0.90
2022-09-17T03:27:11.062Z,0.58
2022-09-17T03:28:11.056Z,0.40
2022-09-17T03:29:11.060Z,1.54
2022-09-17T03:30:11.058Z,0.94
2022-09-17T03:31:11.132Z,0.62
2022-09-17T03:32:11.058Z,0.82
2022-09-17T03:33:11.058Z,0.70
2022-09-17T03:34:11.058Z,1.14
2022-09-17T03:35:11.059Z,0.70
2022-09-17T03:36:11.060Z,0.66
2022-09-17T03:37:11.057Z,0.82
2022-09-17T03:38:11.058Z,0.70
2022-09-17T03:39:11.060Z,0.98
2022-09-17T03:40:11.147Z,0.96
2022-09-17T03:41:11.058Z,0.56
2022-09-17T03:42:11.059Z,0.74
2022-09-17T03:43:11.056Z,1.04
2022-09-17T03:44:11.059Z,1.24
2022-09-17T03:45:11.060Z,0.68
2022-09-17T03:46:11.106Z,0.56
2022-09-17T03:47:11.065Z,0.58
2022-09-17T03:48:11.062Z,0.78
2022-09-17T03:49:11.056Z,0.62
2022-09-17T03:50:11.072Z,0.54
2022-09-17T03:51:11.069Z,1.20
2022-09-17T03:52:11.056Z,0.92
2022-09-17T03:53:11.063Z,0.88
2022-09-17T03:54:11.061Z,0.56
2022-09-17T03:55:11.058Z,0.86
2022-09-17T03:56:11.063Z,0.56
2022-09-17T03:57:11.063Z,0.72
2022-09-17T03:58:11.063Z,0.60
2022-09-17T03:59:11.069Z,0.70
2022-09-17T04:00:11.059Z,0.38
2022-09-17T04:01:11.243Z,0.48
2022-09-17T04:02:11.172Z,0.56
2022-09-17T04:03:11.068Z,0.64
2022-09-17T04:04:11.063Z,0.48
2022-09-17T04:05:11.071Z,0.62
2022-09-17T04:06:11.061Z,0.86
2022-09-17T04:07:11.071Z,0.46
2022-09-17T04:08:11.069Z,0.66
2022-09-17T04:09:11.065Z,0.50
2022-09-17T04:10:11.065Z,0.74
2022-09-17T04:11:11.069Z,0.68
2022-09-17T04:12:11.060Z,0.82
2022-09-17T04:13:11.065Z,0.76
2022-09-17T04:14:11.077Z,1.52
2022-09-17T04:15:11.063Z,0.74
2022-09-17T04:16:11.280Z,0.56
2022-09-17T04:17:11.064Z,0.60
2022-09-17T04:18:11.060Z,0.90
2022-09-17T04:19:11.063Z,0.60
2022-09-17T04:20:11.071Z,0.50
2022-09-17T04:21:11.057Z,0.60
2022-09-17T04:22:11.059Z,0.90
2022-09-17T04:23:13.065Z,0.78
2022-09-17T04:24:11.058Z,0.70
2022-09-17T04:25:11.061Z,1.02
2022-09-17T04:26:11.066Z,0.94
2022-09-17T04:27:11.057Z,0.56
2022-09-17T04:28:11.058Z,0.40
2022-09-17T04:29:11.067Z,1.62
2022-09-17T04:30:11.057Z,0.80
2022-09-17T04:31:11.167Z,0.58
2022-09-17T04:32:11.067Z,0.70
2022-09-17T04:33:11.058Z,0.84
2022-09-17T04:34:11.060Z,1.68
2022-09-17T04:35:11.060Z,0.76
2022-09-17T04:36:11.058Z,1.24
2022-09-17T04:37:11.063Z,0.58
2022-09-17T04:38:11.067Z,0.84
2022-09-17T04:39:11.059Z,1.48
2022-09-17T04:40:11.106Z,0.80
2022-09-17T04:41:11.062Z,0.68
2022-09-17T04:42:11.058Z,0.86
2022-09-17T04:43:11.062Z,1.18
2022-09-17T04:44:11.066Z,0.74
2022-09-17T04:45:11.057Z,0.94
2022-09-17T04:46:11.126Z,0.66
2022-09-17T04:47:11.067Z,0.58
2022-09-17T04:48:11.059Z,0.82
2022-09-17T04:49:11.063Z,0.70
2022-09-17T04:50:11.068Z,0.68
2022-09-17T04:51:11.058Z,0.64
2022-09-17T04:52:11.064Z,0.62
2022-09-17T04:53:11.073Z,0.64
2022-09-17T04:54:11.058Z,0.76
2022-09-17T04:55:11.064Z,0.64
2022-09-17T04:56:11.069Z,0.48
2022-09-17T04:57:11.063Z,0.64
2022-09-17T04:58:11.064Z,0.66
2022-09-17T04:59:11.068Z,1.08
2022-09-17T05:00:11.059Z,1.22
2022-09-17T05:01:11.190Z,0.64
2022-09-17T05:02:11.140Z,0.80
2022-09-17T05:03:11.060Z,0.92
2022-09-17T05:04:11.062Z,0.64
2022-09-17T05:05:11.069Z,0.74
2022-09-17T05:06:11.059Z,0.58
2022-09-17T05:07:13.395Z,0.74
2022-09-17T05:08:12.071Z,0.60
2022-09-17T05:09:11.059Z,0.36
2022-09-17T05:10:11.067Z,0.64
2022-09-17T05:11:11.068Z,0.80
2022-09-17T05:12:11.059Z,0.80
2022-09-17T05:13:11.063Z,0.68
2022-09-17T05:14:11.068Z,0.72
2022-09-17T05:15:11.060Z,0.84
2022-09-17T05:16:11.118Z,1.04
2022-09-17T05:17:11.069Z,0.66
2022-09-17T05:18:11.065Z,0.84
2022-09-17T05:19:11.060Z,1.22
2022-09-17T05:20:11.068Z,1.36
2022-09-17T05:21:11.059Z,1.88
2022-09-17T05:22:11.059Z,0.88
2022-09-17T05:23:11.064Z,0.68
2022-09-17T05:24:11.056Z,1.14
2022-09-17T05:25:11.059Z,1.12
2022-09-17T05:26:11.066Z,0.54
2022-09-17T05:27:11.057Z,0.80
2022-09-17T05:28:11.061Z,0.70
2022-09-17T05:29:11.066Z,0.88
2022-09-17T05:30:11.059Z,0.64
2022-09-17T05:31:11.141Z,0.84
2022-09-17T05:32:11.067Z,0.70
2022-09-17T05:33:11.055Z,0.68
2022-09-17T05:34:11.071Z,1.24
2022-09-17T05:35:11.076Z,1.12
2022-09-17T05:36:11.061Z,1.00
2022-09-17T05:37:13.059Z,0.76
2022-09-17T05:38:11.067Z,0.82
2022-09-17T05:39:11.058Z,0.78
2022-09-17T05:40:11.092Z,0.62
2022-09-17T05:41:11.068Z,1.40
2022-09-17T05:42:11.057Z,1.04
2022-09-17T05:43:11.063Z,1.12
2022-09-17T05:44:14.814Z,0.86
2022-09-17T05:45:13.108Z,1.12
2022-09-17T05:46:11.130Z,0.82
2022-09-17T05:47:11.062Z,0.84
2022-09-17T05:48:13.061Z,0.94
2022-09-17T05:49:11.056Z,0.70
2022-09-17T05:50:11.063Z,0.74
2022-09-17T05:51:11.060Z,0.88
2022-09-17T05:52:11.056Z,0.82
2022-09-17T05:53:13.066Z,0.70
2022-09-17T05:54:11.061Z,1.10
2022-09-17T05:55:11.056Z,0.96
2022-09-17T05:56:11.061Z,1.20
2022-09-17T05:57:11.062Z,0.92
2022-09-17T05:58:18.061Z,0.90
2022-09-17T05:59:11.061Z,0.72
2022-09-17T06:00:11.062Z,0.96
2022-09-17T06:01:11.066Z,0.62
2022-09-17T06:02:12.120Z,1.00
2022-09-17T06:03:11.090Z,0.96
2022-09-17T06:04:11.060Z,1.14
2022-09-17T06:05:11.068Z,1.04
2022-09-17T06:06:11.059Z,0.78
2022-09-17T06:07:12.060Z,0.62
2022-09-17T06:08:11.068Z,0.58
2022-09-17T06:09:11.059Z,1.40
2022-09-17T06:10:11.062Z,1.08
2022-09-17T06:11:11.062Z,0.92
2022-09-17T06:12:11.059Z,0.94
2022-09-17T06:13:11.059Z,0.92
2022-09-17T06:14:11.062Z,0.68
2022-09-17T06:15:11.056Z,0.66
2022-09-17T06:16:11.123Z,0.76
2022-09-17T06:17:11.062Z,2.00
2022-09-17T06:18:11.057Z,0.98
2022-09-17T06:19:11.063Z,1.54
2022-09-17T06:20:11.063Z,1.08
2022-09-17T06:21:11.058Z,1.38
2022-09-17T06:22:11.068Z,1.26
2022-09-17T06:23:15.774Z,1.04
2022-09-17T06:24:11.056Z,1.44
2022-09-17T06:25:11.068Z,1.74
2022-09-17T06:26:11.062Z,1.24
2022-09-17T06:27:11.062Z,1.14
2022-09-17T06:28:11.068Z,0.84
2022-09-17T06:29:11.062Z,0.68
2022-09-17T06:30:11.063Z,1.50
2022-09-17T06:31:11.121Z,1.04
2022-09-17T06:32:13.082Z,1.44
2022-09-17T06:33:11.061Z,1.40
2022-09-17T06:34:11.062Z,0.86
2022-09-17T06:35:11.061Z,1.22
2022-09-17T06:36:13.616Z,0.72
2022-09-17T06:37:11.062Z,1.96
2022-09-17T06:38:11.060Z,1.44
2022-09-17T06:39:11.062Z,1.12
2022-09-17T06:40:11.112Z,1.14
2022-09-17T06:41:11.059Z,0.98
2022-09-17T06:42:11.065Z,1.24
2022-09-17T06:43:11.063Z,1.12
2022-09-17T06:44:11.072Z,1.16
2022-09-17T06:45:14.454Z,1.36
2022-09-17T06:46:13.135Z,1.28
2022-09-17T06:47:11.085Z,1.28
2022-09-17T06:48:11.062Z,1.10
2022-09-17T06:49:11.062Z,1.42
2022-09-17T06:50:11.062Z,1.08
2022-09-17T06:51:11.062Z,1.42
2022-09-17T06:52:11.062Z,1.10
2022-09-17T06:53:11.058Z,1.46
2022-09-17T06:54:11.073Z,1.48
2022-09-17T06:55:11.066Z,1.24
2022-09-17T06:56:11.059Z,1.02
2022-09-17T06:57:11.072Z,1.38
2022-09-17T06:58:11.062Z,0.74
2022-09-17T06:59:11.065Z,1.04
2022-09-17T07:00:11.070Z,0.98
2022-09-17T07:01:11.123Z,1.38
2022-09-17T07:02:11.161Z,1.10
2022-09-17T07:03:11.070Z,1.28
2022-09-17T07:04:11.062Z,1.32
2022-09-17T07:05:11.067Z,1.28
2022-09-17T07:06:11.070Z,0.84
2022-09-17T07:07:11.061Z,0.94
2022-09-17T07:08:11.067Z,1.68
2022-09-17T07:09:11.243Z,1.26
2022-09-17T07:10:11.066Z,1.18
2022-09-17T07:11:11.068Z,1.34
2022-09-17T07:12:11.070Z,0.86
2022-09-17T07:13:11.061Z,1.18
2022-09-17T07:14:11.067Z,1.10
2022-09-17T07:15:11.071Z,1.70
2022-09-17T07:16:11.247Z,1.44
2022-09-17T07:17:11.065Z,0.84
2022-09-17T07:18:11.066Z,1.58
2022-09-17T07:19:11.295Z,1.36
2022-09-17T07:20:11.065Z,1.18
2022-09-17T07:21:11.073Z,1.36
2022-09-17T07:22:11.062Z,1.26
2022-09-17T07:23:11.067Z,1.14
2022-09-17T07:24:11.072Z,1.08
2022-09-17T07:25:11.062Z,1.06
2022-09-17T07:26:13.067Z,1.16
2022-09-17T07:27:11.066Z,1.36
2022-09-17T07:28:11.064Z,1.42
2022-09-17T07:29:11.059Z,0.78
2022-09-17T07:30:11.065Z,0.90
2022-09-17T07:31:15.909Z,0.94
2022-09-17T07:32:13.100Z,0.86
2022-09-17T07:33:11.065Z,1.20
2022-09-17T07:34:11.064Z,1.78
2022-09-17T07:35:11.062Z,0.82
2022-09-17T07:36:12.067Z,0.80
2022-09-17T07:37:11.064Z,0.72
2022-09-17T07:38:11.064Z,0.78
2022-09-17T07:39:11.063Z,0.78
2022-09-17T07:40:13.140Z,1.98
2022-09-17T07:41:14.068Z,0.80
2022-09-17T07:42:11.065Z,0.52
2022-09-17T07:43:11.072Z,0.56
2022-09-17T07:44:13.063Z,0.90
2022-09-17T07:45:11.065Z,1.30
2022-09-17T07:46:15.191Z,0.74
2022-09-17T07:47:11.063Z,2.06
2022-09-17T07:48:11.069Z,1.96
2022-09-17T07:49:11.073Z,0.94
2022-09-17T07:50:11.063Z,1.02
2022-09-17T07:51:15.084Z,0.84
2022-09-17T07:52:11.073Z,0.76
2022-09-17T07:53:11.070Z,0.94
2022-09-17T07:54:11.064Z,0.78
2022-09-17T07:55:11.073Z,0.82
2022-09-17T07:56:11.985Z,1.24
2022-09-17T07:57:11.063Z,1.12
2022-09-17T07:58:11.068Z,0.90
2022-09-17T07:59:11.066Z,0.94
2022-09-17T08:00:11.066Z,0.88
2022-09-17T08:01:11.069Z,0.56
2022-09-17T08:02:14.264Z,0.66
2022-09-17T08:03:11.134Z,1.00
2022-09-17T08:04:11.065Z,0.86
2022-09-17T08:05:11.068Z,0.58
2022-09-17T08:06:12.064Z,0.98
2022-09-17T08:07:12.067Z,1.00
2022-09-17T08:08:11.071Z,0.86
2022-09-17T08:09:11.066Z,1.32
2022-09-17T08:10:11.068Z,0.94
2022-09-17T08:11:32.485Z,0.68
2022-09-17T08:12:13.385Z,1.22
2022-09-17T08:13:11.064Z,0.76
2022-09-17T08:14:12.071Z,0.78
2022-09-17T08:15:11.069Z,1.02
2022-09-17T08:16:11.142Z,0.78
2022-09-17T08:17:11.094Z,1.00
2022-09-17T08:18:11.069Z,0.98
2022-09-17T08:19:11.163Z,1.66
2022-09-17T08:20:11.068Z,1.20
2022-09-17T08:21:11.059Z,0.74
2022-09-17T08:22:11.056Z,0.66
2022-09-17T08:23:11.061Z,0.80
2022-09-17T08:24:11.066Z,1.26
2022-09-17T08:25:11.059Z,0.76
2022-09-17T08:26:15.059Z,0.94
2022-09-17T08:27:11.066Z,0.86
2022-09-17T08:28:11.057Z,0.90
2022-09-17T08:29:11.065Z,0.92
2022-09-17T08:30:11.060Z,1.00
2022-09-17T08:31:11.128Z,0.80
2022-09-17T08:32:11.061Z,0.78
2022-09-17T08:33:11.060Z,0.76
2022-09-17T08:34:11.058Z,0.66
2022-09-17T08:35:11.060Z,0.80
2022-09-17T08:36:11.062Z,1.08
2022-09-17T08:37:11.057Z,1.12
2022-09-17T08:38:11.060Z,0.66
2022-09-17T08:39:11.061Z,0.78
2022-09-17T08:40:16.203Z,0.74
2022-09-17T08:41:21.064Z,0.82
2022-09-17T08:42:18.063Z,0.78
2022-09-17T08:43:16.062Z,0.82
2022-09-17T08:44:21.061Z,0.36
2022-09-17T08:45:13.059Z,0.60
2022-09-17T08:46:11.126Z,0.50
2022-09-17T08:47:18.063Z,0.76
2022-09-17T08:48:13.062Z,1.04
2022-09-17T08:49:21.064Z,0.58
2022-09-17T08:50:16.063Z,0.56
2022-09-17T08:51:19.070Z,0.98
2022-09-17T08:52:19.064Z,0.88
2022-09-17T08:53:21.061Z,0.76
2022-09-17T08:54:21.063Z,0.82
2022-09-17T08:55:19.069Z,0.50
2022-09-17T08:56:16.062Z,0.64
2022-09-17T08:57:19.060Z,1.04
2022-09-17T08:58:19.058Z,1.04
2022-09-17T08:59:21.451Z,0.76
2022-09-17T09:00:15.070Z,1.30
2022-09-17T09:01:19.173Z,1.38
2022-09-17T09:02:19.161Z,1.28
2022-09-17T09:03:19.066Z,0.60
2022-09-17T09:04:19.062Z,1.40
2022-09-17T09:05:19.073Z,0.56
2022-09-17T09:06:11.232Z,0.66
2022-09-17T09:07:14.060Z,0.62
2022-09-17T09:08:19.081Z,0.96
2022-09-17T09:09:14.072Z,0.78
2022-09-17T09:10:18.062Z,0.38
2022-09-17T09:11:17.066Z,0.34
2022-09-17T09:12:19.063Z,0.54
2022-09-17T09:13:12.071Z,0.44
2022-09-17T09:14:21.062Z,0.40
2022-09-17T09:15:21.064Z,0.32
2022-09-17T09:16:19.218Z,0.88
2022-09-17T09:17:11.063Z,1.80
2022-09-17T09:18:20.067Z,0.74
2022-09-17T09:19:21.064Z,0.24
2022-09-17T09:20:17.061Z,0.40
2022-09-17T09:21:21.058Z,0.52
2022-09-17T09:22:21.065Z,0.70
2022-09-17T09:23:19.061Z,0.54
2022-09-17T09:24:21.062Z,0.72
2022-09-17T09:25:19.057Z,0.64
2022-09-17T09:26:18.059Z,0.68
2022-09-17T09:27:19.069Z,0.40
2022-09-17T09:28:19.059Z,0.48
2022-09-17T09:29:19.056Z,0.40
2022-09-17T09:30:15.055Z,0.36
2022-09-17T09:31:21.163Z,0.52
2022-09-17T09:32:21.065Z,0.74
2022-09-17T09:33:19.062Z,0.32
2022-09-17T09:34:12.057Z,0.20
2022-09-17T09:35:18.084Z,0.56
2022-09-17T09:36:13.064Z,0.40
2022-09-17T09:37:19.060Z,0.32
2022-09-17T09:38:19.059Z,0.44
2022-09-17T09:39:17.060Z,0.44
2022-09-17T09:40:19.252Z,0.98
2022-09-17T09:41:14.061Z,0.52
2022-09-17T09:42:19.060Z,0.36
2022-09-17T09:43:19.061Z,0.98
2022-09-17T09:44:13.275Z,0.24
2022-09-17T09:45:21.079Z,0.36
2022-09-17T09:46:19.094Z,1.36
2022-09-17T09:47:19.065Z,0.70
2022-09-17T09:48:21.071Z,0.34
2022-09-17T09:49:19.074Z,0.54
2022-09-17T09:50:19.086Z,0.88
2022-09-17T09:51:19.060Z,0.50
2022-09-17T09:52:19.065Z,0.38
2022-09-17T09:53:19.065Z,0.82
2022-09-17T09:54:19.062Z,0.36
2022-09-17T09:55:25.871Z,0.42
2022-09-17T09:56:23.310Z,0.42
2022-09-17T09:57:15.061Z,0.26
2022-09-17T09:58:19.067Z,0.76
2022-09-17T09:59:13.074Z,0.42
2022-09-17T10:00:19.097Z,0.62
2022-09-17T10:01:15.159Z,0.36
2022-09-17T10:02:11.243Z,0.78
2022-09-17T10:03:20.064Z,0.54
2022-09-17T10:04:19.064Z,0.86
2022-09-17T10:05:11.062Z,0.46
2022-09-17T10:06:11.063Z,0.46
2022-09-17T10:07:11.073Z,0.56
2022-09-17T10:08:15.063Z,0.34
2022-09-17T10:09:14.060Z,0.62
2022-09-17T10:10:11.064Z,0.50
2022-09-17T10:11:23.067Z,0.60
2022-09-17T10:12:17.070Z,0.32
2022-09-17T10:13:13.066Z,0.84
2022-09-17T10:14:19.069Z,0.58
2022-09-17T10:15:19.076Z,0.82
2022-09-17T10:16:19.171Z,0.64
2022-09-17T10:17:19.066Z,0.66
2022-09-17T10:18:21.068Z,0.40
2022-09-17T10:19:19.068Z,0.70
2022-09-17T10:20:19.447Z,0.40
2022-09-17T10:21:21.263Z,1.02
2022-09-17T10:22:19.066Z,0.54
2022-09-17T10:23:11.059Z,1.18
2022-09-17T10:24:21.059Z,0.48
2022-09-17T10:25:19.073Z,0.80
2022-09-17T10:26:19.070Z,0.70
2022-09-17T10:27:15.057Z,0.92
2022-09-17T10:28:21.078Z,0.36
2022-09-17T10:29:16.069Z,0.56
2022-09-17T10:30:15.061Z,0.72
2022-09-17T10:31:13.071Z,0.62
2022-09-17T10:32:20.068Z,0.60
2022-09-17T10:33:19.069Z,0.50
2022-09-17T10:34:19.061Z,0.86
2022-09-17T10:35:19.091Z,0.50
2022-09-17T10:36:13.057Z,0.82
2022-09-17T10:37:19.069Z,1.02
2022-09-17T10:38:19.062Z,0.26
2022-09-17T10:39:19.062Z,0.14
2022-09-17T10:40:21.155Z,0.76
2022-09-17T10:41:19.066Z,0.54
2022-09-17T10:42:17.061Z,0.56
2022-09-17T10:43:18.070Z,0.32
2022-09-17T10:44:17.063Z,0.30
2022-09-17T10:45:19.062Z,0.48
2022-09-17T10:46:13.098Z,0.52
2022-09-17T10:47:16.070Z,0.48
2022-09-17T10:48:19.061Z,0.70
2022-09-17T10:49:16.059Z,0.28
2022-09-17T10:50:17.065Z,0.52
2022-09-17T10:51:16.071Z,0.34
2022-09-17T10:52:19.064Z,0.12
2022-09-17T10:53:16.062Z,0.30
2022-09-17T10:54:19.063Z,0.38
2022-09-17T10:55:21.101Z,0.26
2022-09-17T10:56:19.065Z,0.52
2022-09-17T10:57:12.062Z,0.60
2022-09-17T10:58:19.071Z,0.80
2022-09-17T10:59:21.066Z,1.10
2022-09-17T11:00:18.105Z,0.46
2022-09-17T11:01:19.130Z,0.30
2022-09-17T11:02:21.241Z,0.56
2022-09-17T11:03:19.067Z,0.40
2022-09-17T11:04:19.067Z,0.30
2022-09-17T11:05:19.077Z,0.82
2022-09-17T11:06:19.065Z,0.80
2022-09-17T11:07:19.072Z,0.20
2022-09-17T11:08:21.095Z,0.44
2022-09-17T11:09:19.068Z,0.30
2022-09-17T11:10:19.074Z,0.40
2022-09-17T11:11:17.063Z,0.36
2022-09-17T11:12:21.079Z,0.78
2022-09-17T11:13:19.065Z,0.52
2022-09-17T11:14:21.077Z,0.56
2022-09-17T11:15:19.067Z,0.52
2022-09-17T11:16:19.102Z,0.78
2022-09-17T11:17:21.082Z,0.66
2022-09-17T11:18:19.067Z,0.24
2022-09-17T11:19:21.074Z,0.30
2022-09-17T11:20:19.067Z,0.86
2022-09-17T11:21:20.056Z,0.32
2022-09-17T11:22:19.055Z,0.28
2022-09-17T11:23:19.058Z,0.22
2022-09-17T11:24:19.071Z,1.04
2022-09-17T11:25:19.059Z,0.74
2022-09-17T11:26:18.057Z,0.84
2022-09-17T11:27:24.056Z,0.50
2022-09-17T11:28:19.069Z,0.40
2022-09-17T11:29:19.060Z,0.30
2022-09-17T11:30:16.074Z,0.40
2022-09-17T11:31:24.381Z,0.54
2022-09-17T11:32:24.059Z,0.40
2022-09-17T11:33:22.058Z,0.50
2022-09-17T11:34:19.060Z,0.40
2022-09-17T11:35:16.062Z,0.24
2022-09-17T11:36:20.079Z,0.70
2022-09-17T11:37:19.059Z,0.44
2022-09-17T11:38:21.062Z,0.72
2022-09-17T11:39:17.062Z,0.42
2022-09-17T11:40:24.243Z,0.32
2022-09-17T11:41:18.062Z,0.28
2022-09-17T11:42:16.059Z,0.72
2022-09-17T11:43:19.063Z,0.30
2022-09-17T11:44:16.065Z,0.54
2022-09-17T11:45:19.063Z,0.54
2022-09-17T11:46:18.105Z,0.32
2022-09-17T11:47:17.057Z,1.36
2022-09-17T11:48:17.182Z,0.72
2022-09-17T11:49:19.075Z,1.96
2022-09-17T11:50:19.063Z,0.86
2022-09-17T11:51:19.062Z,0.90
2022-09-17T11:52:19.065Z,0.52
2022-09-17T11:53:19.065Z,1.06
2022-09-17T11:54:19.065Z,1.10
2022-09-17T11:55:19.093Z,0.60
2022-09-17T11:56:17.058Z,0.50
2022-09-17T11:57:19.063Z,0.58
2022-09-17T11:58:22.070Z,1.30
2022-09-17T11:59:21.118Z,0.42
2022-09-17T12:00:16.242Z,0.32
2022-09-17T12:01:15.062Z,0.68
2022-09-17T12:02:19.146Z,0.30
2022-09-17T12:03:20.203Z,0.50
2022-09-17T12:04:19.066Z,0.52
2022-09-17T12:05:21.062Z,0.76
2022-09-17T12:06:14.088Z,0.78
2022-09-17T12:07:21.064Z,0.36
2022-09-17T12:08:19.072Z,0.30
2022-09-17T12:09:17.069Z,0.30
2022-09-17T12:10:19.064Z,0.42
2022-09-17T12:11:19.062Z,0.36
2022-09-17T12:12:44.866Z,1.38
2022-09-17T12:13:22.002Z,0.62
2022-09-17T12:14:18.073Z,0.90
2022-09-17T12:15:19.067Z,0.58
2022-09-17T12:16:17.105Z,0.42
2022-09-17T12:17:20.067Z,0.20
2022-09-17T12:18:31.700Z,0.40
2022-09-17T12:19:22.354Z,0.48
2022-09-17T12:20:19.066Z,0.36
2022-09-17T12:21:14.056Z,0.32
2022-09-17T12:22:16.059Z,1.02
2022-09-17T12:23:15.065Z,0.48
2022-09-17T12:24:19.060Z,0.46
2022-09-17T12:25:15.060Z,1.12
2022-09-17T12:26:19.057Z,0.74
2022-09-17T12:27:18.070Z,0.46
2022-09-17T12:28:17.058Z,0.48
2022-09-17T12:29:19.059Z,0.44
2022-09-17T12:30:20.495Z,0.52
2022-09-17T12:31:21.177Z,1.02
2022-09-17T12:32:19.061Z,0.48
2022-09-17T12:33:19.057Z,0.44
2022-09-17T12:34:19.057Z,0.82
2022-09-17T12:35:19.059Z,0.26
2022-09-17T12:36:22.068Z,0.60
2022-09-17T12:37:20.061Z,0.48
2022-09-17T12:38:19.062Z,0.44
2022-09-17T12:39:19.060Z,0.44
2022-09-17T12:40:19.097Z,0.20
2022-09-17T12:41:18.077Z,0.30
2022-09-17T12:42:22.062Z,0.30
2022-09-17T12:43:19.062Z,0.30
2022-09-17T12:44:22.061Z,0.22
2022-09-17T12:45:22.066Z,0.52
2022-09-17T12:46:19.140Z,0.40
2022-09-17T12:47:19.069Z,0.72
2022-09-17T12:48:22.073Z,0.40
2022-09-17T12:49:22.061Z,0.40
2022-09-17T12:50:19.061Z,0.66
2022-09-17T12:51:19.062Z,0.58
2022-09-17T12:52:19.064Z,0.48
2022-09-17T12:53:22.073Z,0.78
2022-09-17T12:54:19.065Z,0.28
2022-09-17T12:55:19.062Z,0.52
2022-09-17T12:56:22.063Z,0.48
2022-09-17T12:57:19.064Z,0.30
2022-09-17T12:58:19.071Z,0.36
2022-09-17T12:59:13.078Z,0.52
2022-09-17T13:00:14.095Z,0.40
2022-09-17T13:01:22.133Z,0.48
2022-09-17T13:02:17.129Z,0.82
2022-09-17T13:03:22.066Z,0.58
2022-09-17T13:04:19.062Z,0.76
2022-09-17T13:05:19.060Z,1.16
2022-09-17T13:06:19.064Z,0.32
2022-09-17T13:07:22.072Z,0.26
2022-09-17T13:08:19.066Z,0.40
2022-09-17T13:09:19.063Z,0.56
2022-09-17T13:10:19.061Z,0.42
2022-09-17T13:11:19.063Z,0.40
2022-09-17T13:12:19.073Z,0.44
2022-09-17T13:13:19.067Z,0.32
2022-09-17T13:14:22.063Z,1.00
2022-09-17T13:15:22.067Z,0.38
2022-09-17T13:16:19.954Z,0.24
2022-09-17T13:17:19.068Z,0.66
2022-09-17T13:18:26.113Z,0.94